Time;durP1;ratioP1;P1;durP2;ratioP2;P2;SDS_P1;SDS_P2;PMS_P1;PMS_P2;Temp;Humidity;BMP_temperature;BMP_pressure;BME280_temperature;BME280_humidity;BME280_pressure;Samples;Min_cycle;Max_cycle;Signal;HPM_P1;HPM_P2
2020/12/20 00:02:17;;;;;;;12.43;8.97;;;4.90;99.90;;;;;;6201356;28;20852;-60
2020/12/20 00:05:21;;;;;;;12.70;10.00;;;4.90;99.90;;;;;;6200973;28;20491;-60
2020/12/20 00:08:23;;;;;;;10.87;9.00;;;5.00;99.90;;;;;;6186914;28;20470;-60
2020/12/20 00:11:26;;;;;;;12.80;10.40;;;5.00;99.90;;;;;;6172604;28;20540;-60
2020/12/20 00:14:29;;;;;;;10.57;8.77;;;5.00;99.90;;;;;;6177134;28;20489;-62
2020/12/20 00:17:31;;;;;;;10.23;8.37;;;5.00;99.90;;;;;;6190374;28;20821;-62
2020/12/20 00:20:34;;;;;;;9.47;8.40;;;5.00;99.90;;;;;;6201037;28;20477;-62
2020/12/20 00:23:39;;;;;;;13.30;10.63;;;5.00;99.90;;;;;;6200716;28;20985;-64
2020/12/20 00:26:44;;;;;;;12.23;9.60;;;5.00;99.90;;;;;;6200179;28;20553;-63
2020/12/20 00:29:47;;;;;;;12.40;9.13;;;5.00;99.90;;;;;;6199102;28;20478;-57
2020/12/20 00:32:50;;;;;;;12.77;9.70;;;5.00;99.90;;;;;;6206264;28;20823;-57
2020/12/20 00:35:53;;;;;;;10.50;9.07;;;4.90;99.90;;;;;;6209360;28;20472;-57
2020/12/20 00:38:55;;;;;;;10.97;8.40;;;4.70;99.90;;;;;;6209144;28;20471;-60
2020/12/20 00:42:00;;;;;;;12.03;8.80;;;4.50;99.90;;;;;;6209613;28;20480;-57
2020/12/20 00:45:03;;;;;;;10.50;9.20;;;4.40;99.90;;;;;;6207326;28;20794;-57
2020/12/20 00:48:05;;;;;;;14.57;10.43;;;4.30;99.90;;;;;;6211401;28;20464;-57
2020/12/20 00:51:08;;;;;;;13.13;11.00;;;4.40;99.90;;;;;;6213839;28;20468;-60
2020/12/20 00:54:11;;;;;;;12.83;8.47;;;4.40;99.90;;;;;;6211707;28;20469;-59
2020/12/20 00:57:13;;;;;;;13.50;10.03;;;4.40;99.90;;;;;;6206171;28;20810;-61
2020/12/20 01:00:15;;;;;;;11.30;9.50;;;4.40;99.90;;;;;;6201044;28;20539;-61
2020/12/20 01:03:18;;;;;;;11.80;9.50;;;4.50;99.90;;;;;;6200421;28;20809;-60
2020/12/20 01:06:23;;;;;;;9.93;8.50;;;4.50;99.90;;;;;;6200461;28;20473;-63
2020/12/20 01:09:25;;;;;;;12.37;9.37;;;4.50;99.90;;;;;;6200848;28;20468;-61
2020/12/20 01:12:27;;;;;;;12.90;9.70;;;4.50;99.90;;;;;;6200190;28;20484;-60
2020/12/20 01:15:30;;;;;;;9.60;8.47;;;4.50;99.90;;;;;;6205981;28;20490;-61
2020/12/20 01:18:32;;;;;;;10.70;9.03;;;4.50;99.90;;;;;;6202838;28;20818;-61
2020/12/20 01:21:35;;;;;;;10.20;8.77;;;4.50;99.90;;;;;;6214463;28;20548;-61
2020/12/20 01:24:37;;;;;;;13.00;9.80;;;4.50;99.90;;;;;;6210803;28;20489;-61
2020/12/20 01:27:40;;;;;;;10.77;8.90;;;4.50;99.90;;;;;;6223899;28;20470;-60
2020/12/20 01:30:42;;;;;;;11.50;9.23;;;4.50;99.90;;;;;;6214854;28;20977;-61
2020/12/20 01:33:44;;;;;;;12.67;9.00;;;4.40;99.90;;;;;;6222893;28;20826;-61
2020/12/20 01:36:47;;;;;;;12.37;9.53;;;4.40;99.90;;;;;;6225068;28;20825;-61
2020/12/20 01:39:50;;;;;;;16.83;9.43;;;4.40;99.90;;;;;;6228694;28;20472;-61
2020/12/20 01:42:56;;;;;;;12.13;9.17;;;4.40;99.90;;;;;;6229701;28;20472;-61
2020/12/20 01:45:58;;;;;;;13.20;10.80;;;4.50;99.90;;;;;;6229292;28;20495;-61
2020/12/20 01:49:02;;;;;;;12.00;9.63;;;4.60;99.90;;;;;;6229147;28;20479;-61
2020/12/20 01:52:06;;;;;;;11.30;9.10;;;4.60;99.90;;;;;;6228947;28;20491;-61
2020/12/20 01:55:09;;;;;;;10.50;9.10;;;4.60;99.90;;;;;;6229445;28;20494;-61
2020/12/20 01:58:12;;;;;;;10.80;9.20;;;4.60;99.90;;;;;;6229127;28;21014;-61
2020/12/20 02:01:14;;;;;;;12.20;10.10;;;4.70;99.90;;;;;;6228595;28;20975;-59
2020/12/20 02:04:16;;;;;;;11.40;8.77;;;4.80;99.90;;;;;;6228911;28;20467;-57
2020/12/20 02:07:19;;;;;;;13.50;8.77;;;4.80;99.90;;;;;;6229448;28;20490;-59
2020/12/20 02:10:22;;;;;;;11.33;8.20;;;4.70;99.90;;;;;;6228645;28;20472;-60
2020/12/20 02:13:24;;;;;;;12.00;8.73;;;4.60;99.90;;;;;;6229212;28;20984;-58
2020/12/20 02:16:26;;;;;;;10.37;8.50;;;4.60;99.90;;;;;;6228396;28;20479;-59
2020/12/20 02:19:28;;;;;;;12.40;9.10;;;4.60;99.90;;;;;;6228564;28;20967;-59
2020/12/20 02:22:32;;;;;;;12.33;9.00;;;4.60;99.90;;;;;;6220759;28;20476;-58
2020/12/20 02:25:34;;;;;;;14.07;8.70;;;4.60;99.90;;;;;;6228637;28;20441;-59
2020/12/20 02:28:37;;;;;;;11.03;9.10;;;4.60;99.90;;;;;;6228383;28;20801;-60
2020/12/20 02:31:39;;;;;;;12.20;9.13;;;4.60;99.90;;;;;;6227988;28;20976;-60
2020/12/20 02:34:41;;;;;;;13.10;9.53;;;4.60;99.90;;;;;;6227898;28;20451;-60
2020/12/20 02:37:47;;;;;;;11.00;8.97;;;4.60;99.90;;;;;;6228199;28;20467;-63
2020/12/20 02:40:49;;;;;;;13.30;10.60;;;4.70;99.90;;;;;;6227678;28;20809;-61
2020/12/20 02:43:51;;;;;;;10.70;8.60;;;4.60;99.90;;;;;;6227885;28;20462;-61
2020/12/20 02:46:54;;;;;;;12.40;9.00;;;4.60;99.90;;;;;;6228336;28;20555;-60
2020/12/20 02:49:56;;;;;;;12.33;10.00;;;4.50;99.90;;;;;;6226976;28;20487;-60
2020/12/20 02:52:59;;;;;;;14.53;9.63;;;4.40;99.90;;;;;;6228029;28;20471;-61
2020/12/20 02:56:01;;;;;;;13.20;10.40;;;4.30;99.90;;;;;;6227508;28;20464;-62
2020/12/20 02:59:03;;;;;;;14.07;11.43;;;4.30;99.90;;;;;;6227922;28;20491;-61
2020/12/20 03:02:05;;;;;;;10.50;8.60;;;4.30;99.90;;;;;;6219479;28;20961;-60
2020/12/20 03:05:07;;;;;;;12.30;9.27;;;4.30;99.90;;;;;;6203082;28;20480;-61
2020/12/20 03:08:11;;;;;;;10.80;9.47;;;4.30;99.90;;;;;;6203111;28;20543;-61
2020/12/20 03:11:14;;;;;;;13.80;9.60;;;4.30;99.90;;;;;;6202897;28;20477;-62
2020/12/20 03:14:16;;;;;;;12.20;8.73;;;4.30;99.90;;;;;;6203181;28;20481;-60
2020/12/20 03:17:19;;;;;;;11.97;9.67;;;4.30;99.90;;;;;;6202735;28;20842;-59
2020/12/20 03:20:21;;;;;;;11.10;9.03;;;4.40;99.90;;;;;;6202645;28;20489;-61
2020/12/20 03:23:24;;;;;;;11.67;10.10;;;4.50;99.90;;;;;;6198453;28;20472;-61
2020/12/20 03:26:27;;;;;;;14.60;10.40;;;4.50;99.90;;;;;;6202809;28;20481;-61
2020/12/20 03:29:29;;;;;;;11.20;9.07;;;4.40;99.90;;;;;;6202552;28;20484;-61
2020/12/20 03:32:31;;;;;;;15.13;9.73;;;4.50;99.90;;;;;;6202106;28;20487;-61
2020/12/20 03:35:33;;;;;;;11.07;8.67;;;4.50;99.90;;;;;;6202511;28;20556;-62
2020/12/20 03:38:37;;;;;;;14.20;10.13;;;4.60;99.90;;;;;;6202570;28;20483;-62
2020/12/20 03:41:39;;;;;;;13.93;10.70;;;4.60;99.90;;;;;;6201948;28;20990;-61
2020/12/20 03:44:42;;;;;;;14.60;10.30;;;4.70;99.90;;;;;;6202605;28;20469;-60
2020/12/20 03:47:44;;;;;;;13.50;10.53;;;4.70;99.90;;;;;;6202036;28;20477;-61
2020/12/20 03:50:47;;;;;;;13.40;9.60;;;4.60;99.90;;;;;;6201964;28;20481;-61
2020/12/20 03:53:50;;;;;;;13.20;9.57;;;4.60;99.90;;;;;;6202003;28;20937;-61
2020/12/20 03:56:54;;;;;;;13.83;9.97;;;4.50;99.90;;;;;;6202227;28;20476;-61
2020/12/20 03:59:57;;;;;;;16.20;11.33;;;4.50;99.90;;;;;;6202280;28;20522;-60
2020/12/20 04:03:00;;;;;;;11.50;9.60;;;4.50;99.90;;;;;;6202179;28;20484;-62
2020/12/20 04:06:02;;;;;;;14.90;10.27;;;4.50;99.90;;;;;;6202148;28;20480;-61
2020/12/20 04:09:05;;;;;;;13.30;10.10;;;4.50;99.90;;;;;;6202109;28;20549;-59
2020/12/20 04:12:07;;;;;;;13.80;9.53;;;4.50;99.90;;;;;;6201645;28;20481;-59
2020/12/20 04:15:09;;;;;;;14.23;9.50;;;4.50;99.90;;;;;;6201551;28;20484;-60
2020/12/20 04:18:11;;;;;;;11.83;10.27;;;4.60;99.90;;;;;;6201767;28;20620;-60
2020/12/20 04:21:14;;;;;;;13.83;8.93;;;4.60;99.90;;;;;;6201284;28;20487;-60
2020/12/20 04:24:17;;;;;;;11.90;10.00;;;4.50;99.90;;;;;;6201532;28;20469;-60
2020/12/20 04:27:19;;;;;;;14.60;10.50;;;4.50;99.90;;;;;;6201299;28;20989;-60
2020/12/20 04:30:22;;;;;;;14.63;11.03;;;4.60;99.90;;;;;;6192634;28;20473;-60
2020/12/20 04:33:24;;;;;;;12.80;9.40;;;4.60;99.90;;;;;;6201016;28;20473;-60
2020/12/20 04:36:26;;;;;;;10.07;8.87;;;4.70;99.90;;;;;;6201337;28;20567;-59
2020/12/20 04:39:29;;;;;;;10.97;8.93;;;4.70;99.90;;;;;;6201282;28;20484;-61
2020/12/20 04:42:32;;;;;;;12.27;9.60;;;4.70;99.90;;;;;;6200778;28;20469;-61
2020/12/20 04:45:34;;;;;;;12.23;9.60;;;4.70;99.90;;;;;;6200787;28;20631;-59
2020/12/20 04:48:38;;;;;;;12.50;9.53;;;4.70;99.90;;;;;;6201380;28;20481;-60
2020/12/20 04:51:41;;;;;;;11.43;9.50;;;4.70;99.90;;;;;;6200857;28;20472;-60
2020/12/20 04:54:45;;;;;;;15.50;10.07;;;4.70;99.90;;;;;;6200960;28;20472;-59
2020/12/20 04:57:48;;;;;;;14.03;10.33;;;4.70;99.90;;;;;;6201068;28;20465;-61
2020/12/20 05:00:53;;;;;;;13.23;10.27;;;4.70;99.90;;;;;;6201093;28;20547;-59
2020/12/20 05:03:56;;;;;;;14.10;9.40;;;4.60;99.90;;;;;;6200949;28;20493;-59
2020/12/20 05:06:58;;;;;;;12.57;10.00;;;4.60;99.90;;;;;;6200932;28;20491;-61
2020/12/20 05:10:01;;;;;;;13.83;10.13;;;4.70;99.90;;;;;;6200851;28;20491;-59
2020/12/20 05:13:03;;;;;;;15.57;9.70;;;4.70;99.90;;;;;;6202153;28;20496;-59
2020/12/20 05:16:06;;;;;;;13.17;10.47;;;4.70;99.90;;;;;;6205568;28;20800;-60
2020/12/20 05:19:14;;;;;;;13.17;10.20;;;4.80;99.90;;;;;;6205301;28;20483;-60
2020/12/20 05:22:19;;;;;;;12.93;9.33;;;4.80;99.90;;;;;;6205296;28;20581;-59
2020/12/20 05:25:23;;;;;;;12.10;9.53;;;4.80;99.90;;;;;;6205330;28;20468;-61
2020/12/20 05:28:25;;;;;;;13.20;10.03;;;4.80;99.90;;;;;;6205199;28;20480;-61
2020/12/20 05:31:31;;;;;;;13.80;9.97;;;4.80;99.90;;;;;;6205123;28;20484;-60
2020/12/20 05:34:34;;;;;;;13.00;10.27;;;4.70;99.90;;;;;;6202243;28;20814;-61
2020/12/20 05:37:37;;;;;;;12.30;10.50;;;4.80;99.90;;;;;;6204905;28;20780;-61
2020/12/20 05:40:40;;;;;;;12.90;9.37;;;4.70;99.90;;;;;;6204767;28;20481;-62
2020/12/20 05:43:42;;;;;;;13.13;10.67;;;4.80;99.90;;;;;;6205118;28;20441;-62
2020/12/20 05:46:46;;;;;;;15.67;10.07;;;4.70;99.90;;;;;;6204851;28;20536;-61
2020/12/20 05:49:49;;;;;;;14.80;10.60;;;4.70;99.90;;;;;;6204597;28;20793;-61
2020/12/20 05:53:03;;;;;;;10.87;8.90;;;4.60;99.90;;;;;;6204884;28;20469;-60
2020/12/20 05:56:06;;;;;;;17.77;11.73;;;4.60;99.90;;;;;;6204638;28;20492;-60
2020/12/20 05:59:12;;;;;;;13.67;10.07;;;4.60;99.90;;;;;;6204768;28;20472;-61
2020/12/20 06:02:15;;;;;;;10.87;9.50;;;4.60;99.90;;;;;;6204648;28;20484;-61
2020/12/20 06:05:18;;;;;;;14.57;10.77;;;4.60;99.90;;;;;;6204430;28;20526;-59
2020/12/20 06:08:21;;;;;;;12.50;9.83;;;4.40;99.90;;;;;;6204553;28;20473;-61
2020/12/20 06:11:28;;;;;;;13.83;9.93;;;4.40;99.90;;;;;;6204654;28;20477;-59
2020/12/20 06:14:30;;;;;;;11.77;10.47;;;4.40;99.90;;;;;;6204342;28;20469;-59
2020/12/20 06:17:43;;;;;;;13.43;9.83;;;4.40;99.90;;;;;;6204160;28;20969;-60
2020/12/20 06:20:52;;;;;;;15.63;10.67;;;4.40;99.90;;;;;;6204316;28;20546;-58
2020/12/20 06:23:56;;;;;;;12.27;9.27;;;4.40;99.90;;;;;;6203041;28;20485;-59
2020/12/20 06:27:02;;;;;;;11.70;9.17;;;4.50;99.90;;;;;;6203768;28;20931;-59
2020/12/20 06:30:07;;;;;;;13.10;9.40;;;4.40;99.90;;;;;;6203825;28;20965;-59
2020/12/20 06:33:15;;;;;;;16.83;11.70;;;4.40;99.90;;;;;;6204048;28;20473;-59
2020/12/20 06:36:18;;;;;;;13.53;10.03;;;4.40;99.90;;;;;;6203618;28;20794;-61
2020/12/20 06:39:38;;;;;;;11.63;10.20;;;4.40;99.90;;;;;;6199500;28;20525;-63
2020/12/20 06:42:44;;;;;;;12.23;9.07;;;4.40;99.90;;;;;;6203511;28;20465;-62
2020/12/20 06:45:47;;;;;;;10.00;8.50;;;4.50;99.90;;;;;;6203535;28;20469;-63
2020/12/20 06:48:49;;;;;;;12.37;9.37;;;4.40;99.90;;;;;;6203759;28;20479;-62
2020/12/20 06:51:51;;;;;;;11.50;9.27;;;4.40;99.90;;;;;;6203372;28;20484;-59
2020/12/20 06:55:07;;;;;;;18.87;11.20;;;4.40;99.90;;;;;;6203238;28;20488;-59
2020/12/20 06:58:17;;;;;;;13.83;10.20;;;4.20;99.90;;;;;;6203785;28;20481;-59
2020/12/20 07:01:37;;;;;;;10.57;9.47;;;4.00;99.90;;;;;;6203290;28;20481;-59
2020/12/20 07:04:40;;;;;;;11.03;8.93;;;4.10;99.90;;;;;;6203588;28;20452;-59
2020/12/20 07:08:06;;;;;;;12.30;9.33;;;3.90;99.90;;;;;;6203269;28;20452;-60
2020/12/20 07:11:20;;;;;;;14.80;10.40;;;3.90;99.90;;;;;;6202859;28;20469;-61
2020/12/20 07:14:23;;;;;;;14.00;9.50;;;3.80;99.90;;;;;;6203249;28;20473;-61
2020/12/20 07:17:26;;;;;;;13.30;10.67;;;3.70;99.90;;;;;;6203133;28;20488;-61
2020/12/20 07:20:34;;;;;;;13.70;9.57;;;3.70;99.90;;;;;;6202755;28;20576;-61
2020/12/20 07:23:40;;;;;;;12.53;9.87;;;3.70;99.90;;;;;;6202646;28;20807;-61
2020/12/20 07:26:43;;;;;;;12.00;10.20;;;3.80;99.90;;;;;;6202883;28;20832;-59
2020/12/20 07:29:46;;;;;;;15.03;9.47;;;3.80;99.90;;;;;;6202465;28;20469;-59
2020/12/20 07:32:48;;;;;;;11.93;9.80;;;3.90;99.90;;;;;;6202473;28;20492;-60
2020/12/20 07:35:51;;;;;;;10.90;9.33;;;3.80;99.90;;;;;;6201817;28;20491;-60
2020/12/20 07:38:53;;;;;;;12.57;9.20;;;3.80;99.90;;;;;;6202335;28;20469;-59
2020/12/20 07:41:59;;;;;;;13.33;9.80;;;3.80;99.90;;;;;;6202722;28;20480;-61
2020/12/20 07:45:03;;;;;;;14.30;9.60;;;3.80;99.90;;;;;;6202536;28;20480;-59
2020/12/20 07:48:05;;;;;;;13.50;11.37;;;3.80;99.90;;;;;;6202316;28;20469;-60
2020/12/20 07:51:09;;;;;;;15.33;11.00;;;3.90;99.90;;;;;;6201579;28;20495;-62
2020/12/20 07:54:18;;;;;;;14.93;11.17;;;3.90;99.90;;;;;;6201997;28;20818;-62
2020/12/20 07:57:21;;;;;;;14.10;10.47;;;4.00;99.90;;;;;;6202289;28;20496;-61
2020/12/20 08:00:24;;;;;;;12.90;9.90;;;4.00;99.90;;;;;;6201842;28;20925;-62
2020/12/20 08:03:26;;;;;;;13.20;10.43;;;3.90;99.90;;;;;;6201534;28;20470;-63
2020/12/20 08:06:28;;;;;;;12.40;10.50;;;3.90;99.90;;;;;;6201705;28;20487;-61
2020/12/20 08:09:30;;;;;;;15.00;10.70;;;4.00;99.90;;;;;;6201982;28;20500;-60
2020/12/20 08:12:33;;;;;;;13.60;11.00;;;4.10;99.90;;;;;;6201568;28;20489;-61
2020/12/20 08:15:36;;;;;;;13.80;10.60;;;4.10;99.90;;;;;;6201640;28;20472;-61
2020/12/20 08:18:38;;;;;;;13.33;11.00;;;4.20;99.90;;;;;;6201292;28;20488;-61
2020/12/20 08:21:53;;;;;;;17.97;12.10;;;4.20;99.90;;;;;;6201437;28;20823;-61
2020/12/20 08:24:56;;;;;;;14.10;10.23;;;4.30;99.90;;;;;;6201660;28;20484;-61
2020/12/20 08:27:58;;;;;;;14.77;12.00;;;4.30;99.90;;;;;;6201865;28;20977;-61
2020/12/20 08:31:14;;;;;;;15.00;13.00;;;4.30;99.90;;;;;;6201849;28;20496;-61
2020/12/20 08:34:21;;;;;;;13.67;12.27;;;4.30;99.90;;;;;;6201038;28;20564;-61
2020/12/20 08:37:23;;;;;;;15.20;11.33;;;4.40;99.90;;;;;;6201204;28;20480;-61
2020/12/20 08:40:31;;;;;;;10.90;9.30;;;4.40;99.90;;;;;;6200393;28;20831;-61
2020/12/20 08:43:33;;;;;;;11.30;9.80;;;4.50;99.90;;;;;;6199534;28;20918;-60
2020/12/20 08:46:39;;;;;;;15.53;10.20;;;4.50;99.90;;;;;;6200740;28;20500;-61
2020/12/20 08:49:53;;;;;;;12.00;9.80;;;4.50;99.90;;;;;;6200687;28;20866;-59
2020/12/20 08:52:59;;;;;;;13.00;9.90;;;4.50;99.90;;;;;;6200960;28;20456;-59
2020/12/20 08:56:08;;;;;;;14.93;11.43;;;4.50;99.90;;;;;;6201036;28;20551;-59
2020/12/20 08:59:25;;;;;;;11.70;9.93;;;4.60;99.90;;;;;;6201222;28;20539;-60
2020/12/20 09:02:28;;;;;;;14.50;11.50;;;4.50;99.90;;;;;;6190726;28;20466;-60
2020/12/20 09:05:34;;;;;;;15.30;11.47;;;4.50;99.90;;;;;;6192530;28;20457;-61
2020/12/20 09:08:37;;;;;;;13.00;10.60;;;4.50;99.90;;;;;;6194022;28;20532;-59
2020/12/20 09:11:39;;;;;;;18.60;12.33;;;4.50;99.90;;;;;;6177527;28;20505;-62
2020/12/20 09:14:42;;;;;;;12.30;10.23;;;4.60;99.90;;;;;;6176518;28;20478;-58
2020/12/20 09:17:47;;;;;;;11.40;9.50;;;4.60;99.90;;;;;;6204296;28;20925;-59
2020/12/20 09:20:50;;;;;;;14.50;11.10;;;4.60;99.90;;;;;;6224802;28;20480;-62
2020/12/20 09:23:57;;;;;;;12.70;10.57;;;4.60;99.90;;;;;;6226104;28;20479;-63
2020/12/20 09:27:01;;;;;;;12.37;11.13;;;4.70;99.90;;;;;;6225755;28;20468;-60
2020/12/20 09:30:04;;;;;;;12.00;9.07;;;4.70;99.90;;;;;;6224332;28;20841;-60
2020/12/20 09:33:18;;;;;;;11.17;8.70;;;4.70;99.90;;;;;;6224419;28;20594;-60
2020/12/20 09:36:22;;;;;;;10.77;8.70;;;4.60;99.90;;;;;;6200500;28;20476;-61
2020/12/20 09:39:24;;;;;;;11.03;9.53;;;4.60;99.90;;;;;;6200254;28;20480;-60
2020/12/20 09:42:26;;;;;;;13.10;10.03;;;4.70;99.90;;;;;;6199721;28;20488;-58
2020/12/20 09:45:29;;;;;;;12.67;9.70;;;4.70;99.90;;;;;;6200164;28;20476;-59
2020/12/20 09:48:32;;;;;;;12.27;9.13;;;4.80;99.90;;;;;;6191466;28;20471;-60
2020/12/20 09:51:34;;;;;;;11.57;9.53;;;4.80;99.90;;;;;;6206264;28;20968;-60
2020/12/20 09:54:37;;;;;;;11.13;9.70;;;4.80;99.90;;;;;;6212041;28;20556;-60
2020/12/20 09:57:39;;;;;;;10.30;8.90;;;4.80;99.90;;;;;;6200166;28;20508;-58
2020/12/20 10:00:42;;;;;;;11.80;9.00;;;4.80;99.90;;;;;;6203320;28;20487;-60
2020/12/20 10:03:45;;;;;;;14.00;10.43;;;4.70;99.90;;;;;;6204139;28;20491;-59
2020/12/20 10:06:51;;;;;;;11.60;9.40;;;4.70;99.90;;;;;;6204050;28;20472;-61
2020/12/20 10:09:53;;;;;;;10.67;8.80;;;4.70;99.90;;;;;;6204102;28;20473;-60
2020/12/20 10:12:56;;;;;;;13.33;9.57;;;4.80;99.90;;;;;;6203749;28;20489;-60
2020/12/20 10:15:58;;;;;;;12.40;10.67;;;4.70;99.90;;;;;;6204081;28;20472;-59
2020/12/20 10:19:05;;;;;;;12.37;9.63;;;4.80;99.90;;;;;;6203970;28;20548;-61
2020/12/20 10:22:07;;;;;;;10.47;8.67;;;4.90;99.90;;;;;;6203652;28;20491;-60
2020/12/20 10:25:12;;;;;;;8.97;7.93;;;4.90;99.90;;;;;;6203747;28;20559;-58
2020/12/20 10:28:14;;;;;;;9.37;7.60;;;4.90;99.90;;;;;;6203702;28;20477;-60
2020/12/20 10:31:18;;;;;;;12.23;9.13;;;5.00;99.90;;;;;;6204021;28;20746;-60
2020/12/20 10:34:21;;;;;;;9.10;7.73;;;5.10;99.90;;;;;;6203016;28;20507;-58
2020/12/20 10:37:23;;;;;;;7.87;7.00;;;5.10;99.90;;;;;;6203647;28;20487;-60
2020/12/20 10:40:27;;;;;;;8.60;7.70;;;5.10;99.90;;;;;;6202940;28;20477;-60
2020/12/20 10:43:30;;;;;;;8.07;7.23;;;5.10;99.90;;;;;;6213210;28;20476;-61
2020/12/20 10:46:33;;;;;;;9.23;7.33;;;5.20;99.90;;;;;;6213536;28;20986;-58
2020/12/20 10:49:39;;;;;;;7.13;6.43;;;5.10;99.90;;;;;;6206951;28;20442;-60
2020/12/20 10:52:41;;;;;;;7.60;6.80;;;5.00;99.90;;;;;;6214803;28;20472;-59
2020/12/20 10:55:43;;;;;;;10.10;8.13;;;5.00;99.90;;;;;;6214341;28;20438;-59
2020/12/20 10:58:47;;;;;;;9.17;7.10;;;5.00;99.90;;;;;;6214261;28;20498;-60
2020/12/20 11:01:50;;;;;;;9.63;8.17;;;5.00;99.90;;;;;;6214204;28;20815;-59
2020/12/20 11:04:53;;;;;;;9.80;7.43;;;4.90;99.90;;;;;;6213374;28;20432;-59
2020/12/20 11:07:56;;;;;;;10.17;8.07;;;5.00;99.90;;;;;;6215480;28;20799;-60
2020/12/20 11:10:58;;;;;;;9.20;7.00;;;5.00;99.90;;;;;;6212735;28;20479;-59
2020/12/20 11:14:01;;;;;;;9.13;7.73;;;5.00;99.90;;;;;;6214989;28;20456;-59
2020/12/20 11:17:04;;;;;;;9.60;7.23;;;5.00;99.90;;;;;;6220033;28;20468;-58
2020/12/20 11:20:07;;;;;;;7.00;6.23;;;5.00;99.90;;;;;;6226496;28;20468;-58
2020/12/20 11:23:09;;;;;;;10.20;7.50;;;5.00;99.90;;;;;;6224616;28;20460;-61
2020/12/20 11:26:31;;;;;;;9.97;7.47;;;5.10;99.90;;;;;;6202686;28;20564;-60
2020/12/20 11:29:34;;;;;;;8.90;7.87;;;5.10;99.90;;;;;;6202440;28;20473;-59
2020/12/20 11:32:38;;;;;;;11.53;7.00;;;5.10;99.90;;;;;;6201538;28;20863;-57
2020/12/20 11:35:41;;;;;;;9.20;8.23;;;5.00;99.90;;;;;;6202025;28;20915;-58
2020/12/20 11:38:45;;;;;;;8.97;7.90;;;5.10;99.90;;;;;;6201860;28;20465;-59
2020/12/20 11:41:47;;;;;;;10.33;7.00;;;5.10;99.90;;;;;;6201844;28;20473;-59
2020/12/20 11:44:52;;;;;;;8.57;6.87;;;5.00;99.90;;;;;;6202133;28;20476;-59
2020/12/20 11:47:55;;;;;;;8.00;6.87;;;4.90;99.90;;;;;;6201918;28;20469;-60
2020/12/20 11:50:58;;;;;;;6.50;5.90;;;4.90;99.90;;;;;;6201579;28;20559;-58
2020/12/20 11:54:00;;;;;;;6.77;6.17;;;4.90;99.90;;;;;;6201789;28;20476;-59
2020/12/20 11:57:02;;;;;;;7.13;6.30;;;4.90;99.90;;;;;;6201710;28;20473;-59
2020/12/20 12:00:05;;;;;;;7.67;6.90;;;4.80;99.90;;;;;;6199123;28;20619;-59
2020/12/20 12:03:08;;;;;;;7.30;6.60;;;4.90;99.90;;;;;;6177749;28;20470;-59
2020/12/20 12:06:11;;;;;;;7.50;6.80;;;4.90;99.90;;;;;;6177128;28;20478;-59
2020/12/20 12:09:14;;;;;;;7.90;7.10;;;4.80;99.90;;;;;;6190819;28;20480;-59
2020/12/20 12:12:16;;;;;;;7.03;6.30;;;4.70;99.90;;;;;;6209234;28;20476;-59
2020/12/20 12:15:19;;;;;;;9.40;7.00;;;4.60;99.90;;;;;;6210253;28;20475;-59
2020/12/20 12:18:21;;;;;;;7.30;6.50;;;4.60;99.90;;;;;;6225515;28;20480;-58
2020/12/20 12:21:24;;;;;;;7.33;6.57;;;4.60;99.90;;;;;;6225293;28;20499;-58
2020/12/20 12:24:26;;;;;;;8.23;7.40;;;4.70;99.90;;;;;;6224625;28;20482;-58
2020/12/20 12:27:28;;;;;;;8.33;6.87;;;4.80;99.90;;;;;;6225525;28;20809;-58
2020/12/20 12:30:31;;;;;;;7.40;6.33;;;4.80;99.90;;;;;;6218122;28;20488;-60
2020/12/20 12:33:33;;;;;;;13.00;6.70;;;4.80;99.90;;;;;;6204918;28;20477;-60
2020/12/20 12:36:36;;;;;;;6.90;6.20;;;4.80;99.90;;;;;;6221256;28;20805;-59
2020/12/20 12:39:38;;;;;;;7.40;6.70;;;4.70;99.90;;;;;;6211137;28;20480;-60
2020/12/20 12:42:41;;;;;;;7.60;6.90;;;4.80;99.90;;;;;;6205443;28;20483;-59
2020/12/20 12:45:43;;;;;;;7.03;6.43;;;4.70;99.90;;;;;;6200994;28;20492;-61
2020/12/20 12:48:45;;;;;;;7.60;6.80;;;4.70;99.90;;;;;;6215490;28;20468;-60
2020/12/20 12:51:49;;;;;;;8.60;7.70;;;4.80;99.90;;;;;;6205238;28;21238;-60
2020/12/20 12:54:54;;;;;;;8.83;7.93;;;4.70;99.90;;;;;;6212520;28;20490;-60
2020/12/20 12:57:56;;;;;;;7.67;6.73;;;4.60;99.90;;;;;;6208129;28;20483;-59
2020/12/20 13:00:58;;;;;;;8.00;7.30;;;4.70;99.90;;;;;;6212226;28;20476;-60
2020/12/20 13:04:01;;;;;;;9.07;8.17;;;4.70;99.90;;;;;;6208905;28;20469;-60
2020/12/20 13:07:04;;;;;;;8.70;7.80;;;4.70;99.90;;;;;;6211135;28;20477;-59
2020/12/20 13:10:06;;;;;;;8.97;8.17;;;4.70;99.90;;;;;;6210104;28;20489;-60
2020/12/20 13:13:09;;;;;;;8.57;7.60;;;4.70;99.90;;;;;;6201026;28;20495;-61
2020/12/20 13:16:11;;;;;;;8.23;7.43;;;4.70;99.90;;;;;;6200565;28;20538;-61
2020/12/20 13:19:13;;;;;;;9.80;7.40;;;4.70;99.90;;;;;;6200766;28;20480;-60
2020/12/20 13:22:17;;;;;;;8.20;7.40;;;4.70;99.90;;;;;;6200257;28;20973;-58
2020/12/20 13:25:19;;;;;;;8.50;7.70;;;4.80;99.90;;;;;;6200816;28;20479;-60
2020/12/20 13:28:24;;;;;;;8.00;7.30;;;4.80;99.90;;;;;;6200495;28;20491;-61
2020/12/20 13:31:27;;;;;;;8.70;7.77;;;4.90;99.90;;;;;;6207031;28;20476;-58
2020/12/20 13:34:30;;;;;;;7.67;6.97;;;4.90;99.90;;;;;;6219278;28;20486;-60
2020/12/20 13:37:33;;;;;;;7.43;6.57;;;4.90;99.90;;;;;;6214290;28;20483;-63
2020/12/20 13:40:35;;;;;;;7.13;6.43;;;5.00;99.90;;;;;;6204309;28;20473;-61
2020/12/20 13:43:37;;;;;;;7.37;6.67;;;5.00;99.90;;;;;;6205500;28;20444;-58
2020/12/20 13:46:39;;;;;;;7.50;6.70;;;5.10;99.90;;;;;;6215215;28;20575;-58
2020/12/20 13:49:42;;;;;;;7.93;7.13;;;5.10;99.90;;;;;;6204386;28;20774;-58
2020/12/20 13:52:45;;;;;;;9.00;7.60;;;5.20;99.90;;;;;;6204357;28;20444;-58
2020/12/20 13:55:49;;;;;;;10.20;7.87;;;5.20;99.90;;;;;;6209906;28;20519;-60
2020/12/20 13:58:51;;;;;;;10.10;7.40;;;5.20;99.90;;;;;;6204227;28;20928;-59
2020/12/20 14:01:53;;;;;;;9.67;8.53;;;5.20;99.90;;;;;;6179250;28;20462;-57
2020/12/20 14:04:56;;;;;;;10.53;8.60;;;5.30;99.90;;;;;;6180282;28;20446;-59
2020/12/20 14:07:59;;;;;;;6.97;6.27;;;5.30;99.90;;;;;;6183441;28;20776;-59
2020/12/20 14:11:01;;;;;;;6.23;5.63;;;5.20;99.90;;;;;;6203957;28;20461;-58
2020/12/20 14:14:03;;;;;;;7.40;6.70;;;5.20;99.90;;;;;;6203669;28;20483;-59
2020/12/20 14:17:05;;;;;;;6.70;6.10;;;5.10;99.90;;;;;;6203955;28;20570;-58
2020/12/20 14:20:11;;;;;;;6.53;5.90;;;5.10;99.90;;;;;;6203647;28;20796;-58
2020/12/20 14:23:26;;;;;;;6.30;5.70;;;5.00;99.90;;;;;;6204057;28;20789;-58
2020/12/20 14:26:28;;;;;;;8.40;6.83;;;5.00;99.90;;;;;;6208544;28;20474;-59
2020/12/20 14:29:30;;;;;;;7.20;6.60;;;5.00;99.90;;;;;;6219830;28;20464;-58
2020/12/20 14:32:34;;;;;;;7.97;7.17;;;5.00;99.90;;;;;;6228254;28;20527;-58
2020/12/20 14:35:36;;;;;;;7.67;6.23;;;4.90;99.90;;;;;;6227504;28;20971;-59
2020/12/20 14:38:40;;;;;;;7.07;6.17;;;4.90;99.90;;;;;;6227785;28;20468;-59
2020/12/20 14:41:43;;;;;;;7.60;6.23;;;4.90;99.90;;;;;;6228019;28;20468;-58
2020/12/20 14:44:46;;;;;;;6.10;5.60;;;4.80;99.90;;;;;;6227002;28;20495;-60
2020/12/20 14:47:50;;;;;;;8.07;6.60;;;4.60;99.90;;;;;;6227316;28;20490;-58
2020/12/20 14:50:52;;;;;;;10.10;7.17;;;4.50;99.90;;;;;;6227402;28;20476;-60
2020/12/20 14:53:56;;;;;;;9.40;7.47;;;4.50;99.90;;;;;;6227774;28;20995;-58
2020/12/20 14:57:00;;;;;;;7.63;6.90;;;4.60;99.90;;;;;;6227743;28;20476;-61
2020/12/20 15:00:06;;;;;;;8.07;7.17;;;4.60;99.90;;;;;;6220536;28;20824;-59
2020/12/20 15:03:09;;;;;;;7.40;6.40;;;4.60;99.90;;;;;;6179093;28;20474;-60
2020/12/20 15:06:17;;;;;;;12.90;6.27;;;4.60;99.90;;;;;;6173955;28;20798;-58
2020/12/20 15:09:20;;;;;;;7.63;5.97;;;4.60;99.90;;;;;;6201632;28;20650;-59
2020/12/20 15:12:22;;;;;;;9.97;7.87;;;4.40;99.90;;;;;;6226567;28;20487;-59
2020/12/20 15:15:25;;;;;;;8.57;7.67;;;4.30;99.90;;;;;;6226674;28;20475;-61
2020/12/20 15:18:27;;;;;;;7.00;5.90;;;4.40;99.90;;;;;;6217438;28;20991;-58
2020/12/20 15:21:29;;;;;;;8.23;7.43;;;4.30;99.90;;;;;;6202277;28;20547;-58
2020/12/20 15:24:33;;;;;;;9.97;7.77;;;4.30;99.90;;;;;;6201034;28;20479;-58
2020/12/20 15:27:35;;;;;;;8.03;7.03;;;4.30;99.90;;;;;;6200253;28;20511;-59
2020/12/20 15:30:38;;;;;;;8.60;7.47;;;4.40;99.90;;;;;;6199990;28;20812;-59
2020/12/20 15:33:40;;;;;;;9.00;7.60;;;4.40;99.90;;;;;;6199768;28;20485;-58
2020/12/20 15:36:47;;;;;;;9.30;7.23;;;4.30;99.90;;;;;;6199580;28;20801;-58
2020/12/20 15:39:50;;;;;;;7.97;6.77;;;4.30;99.90;;;;;;6201319;28;20473;-58
2020/12/20 15:42:53;;;;;;;8.13;7.30;;;4.20;99.90;;;;;;6201760;28;20477;-58
2020/12/20 15:45:56;;;;;;;7.03;6.33;;;4.20;99.90;;;;;;6202124;28;20481;-59
2020/12/20 15:48:58;;;;;;;8.60;6.90;;;4.30;99.90;;;;;;6201704;28;20481;-59
2020/12/20 15:52:00;;;;;;;10.80;6.33;;;4.30;99.90;;;;;;6200819;28;20476;-59
2020/12/20 15:55:03;;;;;;;10.03;7.33;;;4.30;99.90;;;;;;6201234;28;20481;-59
2020/12/20 15:58:05;;;;;;;8.90;8.00;;;4.30;99.90;;;;;;6201432;28;20484;-58